Main page
METAR-TAF:

METAR-TAF

Airports :

Turkmenabat Airport

Türkmenabat, Turkmenistan

latitude: 39-05-00N, longitude: 063-36-48E, elevation: 192 m

Current weather observation

The report was made 48 minutes ago, at 20:00 UTC
Calm wind
Temperature 30°C
Humidity 31%
Pressure 1002 hPa
Visibility 10 km or more
no clouds below 1500 m and no cumulonimbus

METAR: UTAV 252000Z 00000KT CAVOK 30/11 Q1002 R13/CLRD70 NOSIG

Time: 01:48 (20:48 UTC)

Forecast

The report was made 4 hours and 18 minutes ago, at 16:30 UTC
Forecast valid from 25 at 18 UTC to 26 at 18 UTC
Wind 14 kt from the North
Visibility 10 km or more
no clouds below 1500 m and no cumulonimbus
Temporary
from 25 at 18 UTC to 25 at 24 UTC
Wind 10 kt from the Northeast with gusts up to 20 kt

TAF: UTAV 251630Z 2518/2618 36014KT CAVOK TEMPO 2518/2524 04010G20KT

Weather observations and forecasts of more than 4000 airports (METAR and TAF reports).

The available stations are represented by yellow and red dots on the map.

Hover mouse over dot to see the name of the station.

Then click to see weather observations and forecasts.

To change the map : click on the green buttons with a black cross to zoom in, on the green button with a dash to zoom out, or on the green arrows for adjacent maps.


METAR-TAF: